createdAt,value
2023-01-31T00:01:43.373Z,2.60
2023-01-31T00:04:12.671Z,2.60
2023-01-31T00:06:43.148Z,2.70
2023-01-31T00:09:12.231Z,2.70
2023-01-31T00:11:39.950Z,2.60
2023-01-31T00:14:08.705Z,2.60
2023-01-31T00:16:36.220Z,2.60
2023-01-31T00:19:04.911Z,2.60
2023-01-31T00:21:32.864Z,2.70
2023-01-31T00:24:01.220Z,2.60
2023-01-31T00:26:30.826Z,2.70
2023-01-31T00:29:00.276Z,2.70
2023-01-31T00:31:30.040Z,2.70
2023-01-31T00:33:58.332Z,2.70
2023-01-31T00:36:34.846Z,2.70
2023-01-31T00:39:03.484Z,2.70
2023-01-31T00:41:31.385Z,2.70
2023-01-31T00:43:59.183Z,2.70
2023-01-31T00:46:26.799Z,2.80
2023-01-31T00:48:56.326Z,2.70
2023-01-31T00:51:26.636Z,2.80
2023-01-31T00:53:55.196Z,2.70
2023-01-31T00:56:24.391Z,2.80
2023-01-31T00:58:53.317Z,2.80
2023-01-31T01:01:23.746Z,2.80
2023-01-31T01:03:53.079Z,2.80
2023-01-31T01:06:20.871Z,2.80
2023-01-31T01:08:48.412Z,2.80
2023-01-31T01:11:20.313Z,2.90
2023-01-31T01:13:48.165Z,2.90
2023-01-31T01:16:21.172Z,2.90
2023-01-31T01:18:50.347Z,2.90
2023-01-31T01:21:20.304Z,2.90
2023-01-31T01:23:48.047Z,2.90
2023-01-31T01:26:21.250Z,2.90
2023-01-31T01:28:50.794Z,3.00
2023-01-31T01:31:18.990Z,3.00
2023-01-31T01:33:47.699Z,3.00
2023-01-31T01:36:17.389Z,3.00
2023-01-31T01:38:45.987Z,3.00
2023-01-31T01:41:14.292Z,3.10
2023-01-31T01:43:53.489Z,3.00
2023-01-31T01:46:27.306Z,3.00
2023-01-31T01:49:02.972Z,3.10
2023-01-31T01:51:33.993Z,3.10
2023-01-31T01:54:06.207Z,3.10
2023-01-31T01:56:42.039Z,3.10
2023-01-31T01:59:16.834Z,3.10
2023-01-31T02:01:45.994Z,3.10
2023-01-31T02:04:17.542Z,3.20
2023-01-31T02:06:46.461Z,3.20
2023-01-31T02:09:33.107Z,3.30
2023-01-31T02:12:00.261Z,3.20
2023-01-31T02:14:28.196Z,3.20
2023-01-31T02:16:55.507Z,3.30
2023-01-31T02:19:44.146Z,3.30
2023-01-31T02:22:32.399Z,3.30
2023-01-31T02:25:04.957Z,3.30
2023-01-31T02:28:04.437Z,3.30
2023-01-31T02:30:56.177Z,3.30
2023-01-31T02:34:27.703Z,3.30
2023-01-31T02:37:27.796Z,3.30
2023-01-31T02:40:10.373Z,3.30
2023-01-31T02:42:43.292Z,3.30
2023-01-31T02:45:17.006Z,3.30
2023-01-31T02:48:08.123Z,3.30
2023-01-31T02:51:13.723Z,3.40
2023-01-31T02:53:50.026Z,3.40
2023-01-31T02:56:27.545Z,3.40
2023-01-31T02:59:13.455Z,3.40
2023-01-31T03:01:45.292Z,3.40
2023-01-31T03:04:14.852Z,3.40
2023-01-31T03:07:07.069Z,3.40
2023-01-31T03:09:43.226Z,3.40
2023-01-31T03:12:26.161Z,3.40
2023-01-31T03:15:11.044Z,3.50
2023-01-31T03:17:58.680Z,3.50
2023-01-31T03:20:53.537Z,3.40
2023-01-31T03:23:24.899Z,3.50
2023-01-31T03:25:52.622Z,3.50
2023-01-31T03:28:28.254Z,3.50
2023-01-31T03:31:04.956Z,3.50
2023-01-31T03:33:34.122Z,3.50
2023-01-31T03:36:38.059Z,3.50
2023-01-31T03:39:29.216Z,3.50
2023-01-31T03:42:17.360Z,3.50
2023-01-31T03:44:57.190Z,3.50
2023-01-31T03:47:44.707Z,3.60
2023-01-31T03:50:28.231Z,3.60
2023-01-31T03:53:01.704Z,3.50
2023-01-31T03:55:48.277Z,3.60
2023-01-31T03:58:19.862Z,3.50
2023-01-31T04:00:50.349Z,3.50
2023-01-31T04:03:30.527Z,3.60
2023-01-31T04:05:58.721Z,3.60
2023-01-31T04:08:26.916Z,3.50
2023-01-31T04:11:03.769Z,3.50
2023-01-31T04:13:31.469Z,3.50
2023-01-31T04:15:58.661Z,3.50
2023-01-31T04:18:28.950Z,3.50
2023-01-31T04:20:56.246Z,3.50
2023-01-31T04:23:25.067Z,3.50
2023-01-31T04:25:54.987Z,3.50
2023-01-31T04:28:23.139Z,3.50
2023-01-31T04:30:54.788Z,3.50
2023-01-31T04:33:22.553Z,3.50
2023-01-31T04:35:51.905Z,3.50
2023-01-31T04:38:19.546Z,3.50
2023-01-31T04:40:46.712Z,3.50
2023-01-31T04:43:15.088Z,3.50
2023-01-31T04:45:42.422Z,3.50
2023-01-31T04:48:10.158Z,3.50
2023-01-31T04:50:37.354Z,3.50
2023-01-31T04:53:05.030Z,3.50
2023-01-31T04:55:32.185Z,3.50
2023-01-31T04:57:59.742Z,3.50
2023-01-31T05:00:27.055Z,3.50
2023-01-31T05:02:54.668Z,3.50
2023-01-31T05:05:22.197Z,3.40
2023-01-31T05:07:49.676Z,4.50
2023-01-31T05:10:18.253Z,3.50
2023-01-31T05:12:47.193Z,3.50
2023-01-31T05:15:14.488Z,3.50
2023-01-31T05:17:41.994Z,3.40
2023-01-31T05:20:09.808Z,3.40
2023-01-31T05:22:37.381Z,3.40
2023-01-31T05:25:05.129Z,3.40
2023-01-31T05:27:32.670Z,3.30
2023-01-31T05:30:00.911Z,3.30
2023-01-31T05:32:28.488Z,3.30
2023-01-31T05:34:55.769Z,3.30
2023-01-31T05:37:23.252Z,3.30
2023-01-31T05:39:51.082Z,3.30
2023-01-31T05:42:18.565Z,3.30
2023-01-31T05:44:45.846Z,3.30
2023-01-31T05:47:13.251Z,3.30
2023-01-31T05:49:40.670Z,3.20
2023-01-31T05:52:08.160Z,3.20
2023-01-31T05:54:35.434Z,3.30
2023-01-31T05:57:02.999Z,3.30
2023-01-31T05:59:32.293Z,3.30
2023-01-31T06:01:59.972Z,3.20
2023-01-31T06:04:27.108Z,3.20
2023-01-31T06:06:54.585Z,3.30
2023-01-31T06:09:21.765Z,3.20
2023-01-31T06:11:49.250Z,3.20
2023-01-31T06:14:16.704Z,3.20
2023-01-31T06:16:44.338Z,3.20
2023-01-31T06:19:11.600Z,3.20
2023-01-31T06:21:39.347Z,3.20
2023-01-31T06:24:07.003Z,3.20
2023-01-31T06:26:34.527Z,3.10
2023-01-31T06:29:01.755Z,3.10
2023-01-31T06:31:29.520Z,3.10
2023-01-31T06:33:57.073Z,3.00
2023-01-31T06:36:25.104Z,3.00
2023-01-31T06:38:53.461Z,2.90
2023-01-31T06:41:21.400Z,2.90
2023-01-31T06:43:49.004Z,3.00
2023-01-31T06:46:17.288Z,2.80
2023-01-31T06:48:44.842Z,2.80
2023-01-31T06:51:12.309Z,2.70
2023-01-31T06:53:39.519Z,2.70
2023-01-31T06:56:07.933Z,2.70
2023-01-31T06:58:35.238Z,2.60
2023-01-31T07:01:07.926Z,2.70
2023-01-31T07:03:35.217Z,2.60
2023-01-31T07:06:03.466Z,2.70
2023-01-31T07:08:34.973Z,2.60
2023-01-31T07:11:04.552Z,2.70
2023-01-31T07:13:32.422Z,2.60
2023-01-31T07:16:00.074Z,2.60
2023-01-31T07:18:27.391Z,2.70
2023-01-31T07:20:55.031Z,2.60
2023-01-31T07:23:22.249Z,2.70
2023-01-31T07:25:49.656Z,2.70
2023-01-31T07:28:16.929Z,2.70
2023-01-31T07:30:46.284Z,2.70
2023-01-31T07:33:13.558Z,2.80
2023-01-31T07:35:43.248Z,2.80
2023-01-31T07:38:11.389Z,2.80
2023-01-31T07:40:40.313Z,2.80
2023-01-31T07:43:07.662Z,2.90
2023-01-31T07:45:35.461Z,2.90
2023-01-31T07:48:03.119Z,2.90
2023-01-31T07:50:30.876Z,3.00
2023-01-31T07:52:59.198Z,3.00
2023-01-31T07:55:27.190Z,3.00
2023-01-31T07:57:54.591Z,3.10
2023-01-31T08:00:40.697Z,3.20
2023-01-31T08:03:34.683Z,3.20
2023-01-31T08:06:06.783Z,3.20
2023-01-31T08:08:34.275Z,3.20
2023-01-31T08:11:02.106Z,3.20
2023-01-31T08:13:29.447Z,3.30
2023-01-31T08:15:57.297Z,3.30
2023-01-31T08:18:24.435Z,3.40
2023-01-31T08:20:52.027Z,3.40
2023-01-31T08:23:19.220Z,3.40
2023-01-31T08:25:46.801Z,3.50
2023-01-31T08:28:14.184Z,3.50
2023-01-31T08:30:43.881Z,3.60
2023-01-31T08:33:12.051Z,3.60
2023-01-31T08:35:39.563Z,3.60
2023-01-31T08:38:15.934Z,3.70
2023-01-31T08:40:44.331Z,3.70
2023-01-31T08:43:11.724Z,3.70
2023-01-31T08:45:39.507Z,3.80
2023-01-31T08:48:06.879Z,3.80
2023-01-31T08:50:34.697Z,3.90
2023-01-31T08:53:03.927Z,3.90
2023-01-31T08:55:34.657Z,3.90
2023-01-31T08:58:04.663Z,5.30
2023-01-31T09:00:32.613Z,4.50
2023-01-31T09:03:01.027Z,3.90
2023-01-31T09:05:30.381Z,4.00
2023-01-31T09:07:57.660Z,4.00
2023-01-31T09:10:25.426Z,4.10
2023-01-31T09:12:52.899Z,4.10
2023-01-31T09:15:20.662Z,4.20
2023-01-31T09:17:48.176Z,4.20
2023-01-31T09:20:15.881Z,4.20
2023-01-31T09:22:43.207Z,4.20
2023-01-31T09:25:11.188Z,4.20
2023-01-31T09:27:39.356Z,4.20
2023-01-31T09:30:09.128Z,4.20
2023-01-31T09:32:37.340Z,4.20
2023-01-31T09:35:05.079Z,4.20
2023-01-31T09:37:32.449Z,4.20
2023-01-31T09:39:59.900Z,4.20
2023-01-31T09:42:29.511Z,4.20
2023-01-31T09:45:00.030Z,4.20
2023-01-31T09:47:32.207Z,4.30
2023-01-31T09:50:17.696Z,4.30
2023-01-31T09:52:45.205Z,4.30
2023-01-31T09:55:18.380Z,4.40
2023-01-31T09:57:58.859Z,4.40
2023-01-31T10:00:33.996Z,4.50
2023-01-31T10:03:27.550Z,4.50
2023-01-31T10:06:12.221Z,4.50
2023-01-31T10:08:46.239Z,4.60
2023-01-31T10:11:38.255Z,4.60
2023-01-31T10:14:16.700Z,4.60
2023-01-31T10:17:03.588Z,4.70
2023-01-31T10:20:03.233Z,4.70
2023-01-31T10:22:50.738Z,4.70
2023-01-31T10:25:28.127Z,4.70
2023-01-31T10:28:18.079Z,4.70
2023-01-31T10:31:13.615Z,4.70
2023-01-31T10:34:07.246Z,4.80
2023-01-31T10:36:43.690Z,4.80
2023-01-31T10:39:23.778Z,5.00
2023-01-31T10:42:26.110Z,5.10
2023-01-31T10:44:58.870Z,5.50
2023-01-31T10:47:48.622Z,5.90
2023-01-31T10:50:29.653Z,6.30
2023-01-31T10:53:19.725Z,6.40
2023-01-31T10:56:04.870Z,6.50
2023-01-31T10:58:32.760Z,6.50
2023-01-31T11:01:01.588Z,6.30
2023-01-31T11:03:28.897Z,6.10
2023-01-31T11:05:58.533Z,5.70
2023-01-31T11:09:14.445Z,5.40
2023-01-31T11:11:55.953Z,5.20
2023-01-31T11:14:23.561Z,5.10
2023-01-31T11:16:58.890Z,5.00
2023-01-31T11:19:35.330Z,4.90
2023-01-31T11:22:03.679Z,4.90
2023-01-31T11:24:33.915Z,4.80
2023-01-31T11:27:08.460Z,4.70
2023-01-31T11:29:43.568Z,4.70
2023-01-31T11:32:21.547Z,4.70
2023-01-31T11:35:06.031Z,4.70
2023-01-31T11:37:34.878Z,4.70
2023-01-31T11:40:19.948Z,4.70
2023-01-31T11:43:00.802Z,4.70
2023-01-31T11:45:34.267Z,4.70
2023-01-31T11:48:17.665Z,4.70
2023-01-31T11:50:50.696Z,4.70
2023-01-31T11:53:37.111Z,4.70
2023-01-31T11:56:23.098Z,4.70
2023-01-31T11:58:54.881Z,4.60
2023-01-31T12:01:24.668Z,4.60
2023-01-31T12:04:03.064Z,4.50
2023-01-31T12:06:37.189Z,4.50
2023-01-31T12:09:25.982Z,4.50
2023-01-31T12:11:56.848Z,4.60
2023-01-31T12:14:35.675Z,4.60
2023-01-31T12:17:03.455Z,4.70
2023-01-31T12:20:05.588Z,4.70
2023-01-31T12:22:53.500Z,4.70
2023-01-31T12:25:44.858Z,4.70
2023-01-31T12:28:50.286Z,4.90
2023-01-31T12:31:36.571Z,5.00
2023-01-31T12:34:26.782Z,5.10
2023-01-31T12:37:04.198Z,5.10
2023-01-31T12:39:44.346Z,5.10
2023-01-31T12:42:30.561Z,5.10
2023-01-31T12:45:47.469Z,5.00
2023-01-31T12:48:36.266Z,4.90
2023-01-31T12:51:29.610Z,4.90
2023-01-31T12:54:29.155Z,4.80
2023-01-31T12:57:07.859Z,4.80
2023-01-31T12:59:50.600Z,4.70
2023-01-31T13:02:35.627Z,4.70
2023-01-31T13:05:27.724Z,4.70
2023-01-31T13:08:17.477Z,4.70
2023-01-31T13:10:50.898Z,4.70
2023-01-31T13:13:50.292Z,4.70
2023-01-31T13:16:45.818Z,4.60
2023-01-31T13:19:28.580Z,4.60
2023-01-31T13:22:00.555Z,4.70
2023-01-31T13:24:35.692Z,4.60
2023-01-31T13:27:12.478Z,4.50
2023-01-31T13:29:43.853Z,4.60
2023-01-31T13:32:23.440Z,4.60
2023-01-31T13:35:00.538Z,4.60
2023-01-31T13:37:30.818Z,4.60
2023-01-31T13:40:17.339Z,4.70
2023-01-31T13:42:44.827Z,4.60
2023-01-31T13:45:48.312Z,4.60
2023-01-31T13:48:27.967Z,4.60
2023-01-31T13:51:23.281Z,4.60
2023-01-31T13:53:59.511Z,4.60
2023-01-31T13:56:36.431Z,4.50
2023-01-31T13:59:09.043Z,4.40
2023-01-31T14:01:45.956Z,4.40
2023-01-31T14:04:14.732Z,4.40
2023-01-31T14:06:56.933Z,4.50
2023-01-31T14:09:33.140Z,4.40
2023-01-31T14:12:18.354Z,4.40
2023-01-31T14:14:47.716Z,4.40
2023-01-31T14:17:34.788Z,5.70
2023-01-31T14:20:27.121Z,4.40
2023-01-31T14:23:36.474Z,4.30
2023-01-31T14:26:03.939Z,4.30
2023-01-31T14:28:31.180Z,4.30
2023-01-31T14:30:59.124Z,4.20
2023-01-31T14:33:29.196Z,4.20
2023-01-31T14:35:56.644Z,4.20
2023-01-31T14:38:40.176Z,4.10
2023-01-31T14:41:19.273Z,4.10
2023-01-31T14:44:08.436Z,4.10
2023-01-31T14:46:43.583Z,4.00
2023-01-31T14:50:03.056Z,4.00
2023-01-31T14:52:49.175Z,4.00
2023-01-31T14:55:25.355Z,4.00
2023-01-31T14:57:58.438Z,3.90
2023-01-31T15:00:30.458Z,3.90
2023-01-31T15:03:00.960Z,3.80
2023-01-31T15:05:31.248Z,3.80
2023-01-31T15:08:04.363Z,3.70
2023-01-31T15:11:14.057Z,3.70
2023-01-31T15:13:50.758Z,3.60
2023-01-31T15:16:20.426Z,3.60
2023-01-31T15:19:13.872Z,3.50
2023-01-31T15:22:02.515Z,3.50
2023-01-31T15:24:39.668Z,3.50
2023-01-31T15:27:14.617Z,3.40
2023-01-31T15:30:06.955Z,3.40
2023-01-31T15:32:43.672Z,3.30
2023-01-31T15:35:17.212Z,3.40
2023-01-31T15:37:46.730Z,3.30
2023-01-31T15:40:21.517Z,3.30
2023-01-31T15:42:48.783Z,3.20
2023-01-31T15:45:27.161Z,3.20
2023-01-31T15:48:13.999Z,3.20
2023-01-31T15:50:56.658Z,3.20
2023-01-31T15:53:29.072Z,3.10
2023-01-31T15:56:02.347Z,3.10
2023-01-31T15:58:31.406Z,3.10
2023-01-31T16:01:00.976Z,3.10
2023-01-31T16:03:34.653Z,3.10
2023-01-31T16:06:02.618Z,3.00
2023-01-31T16:08:36.159Z,3.00
2023-01-31T16:11:09.843Z,3.00
2023-01-31T16:13:39.885Z,2.90
2023-01-31T16:16:15.792Z,2.90
2023-01-31T16:18:49.253Z,2.90
2023-01-31T16:21:16.730Z,2.90
2023-01-31T16:23:44.038Z,2.80
2023-01-31T16:26:23.788Z,2.90
2023-01-31T16:28:57.083Z,2.80
2023-01-31T16:31:29.201Z,2.80
2023-01-31T16:33:58.958Z,2.80
2023-01-31T16:36:31.487Z,2.70
2023-01-31T16:39:02.825Z,2.70
2023-01-31T16:41:47.944Z,2.70
2023-01-31T16:44:18.907Z,2.70
2023-01-31T16:46:48.105Z,2.70
2023-01-31T16:49:23.042Z,2.60
2023-01-31T16:52:17.435Z,2.60
2023-01-31T16:54:50.644Z,2.50
2023-01-31T16:57:38.420Z,2.50
2023-01-31T17:00:27.898Z,2.50
2023-01-31T17:03:00.798Z,2.40
2023-01-31T17:05:41.212Z,2.40
2023-01-31T17:08:19.526Z,2.40
2023-01-31T17:10:48.720Z,2.30
2023-01-31T17:13:22.201Z,2.30
2023-01-31T17:15:50.636Z,2.30
2023-01-31T17:18:18.775Z,2.30
2023-01-31T17:20:51.014Z,2.30
2023-01-31T17:23:19.075Z,2.30
2023-01-31T17:25:46.723Z,2.30
2023-01-31T17:28:14.262Z,2.30
2023-01-31T17:30:42.962Z,2.40
2023-01-31T17:33:13.675Z,2.30
2023-01-31T17:35:43.233Z,2.30
2023-01-31T17:38:10.792Z,2.30
2023-01-31T17:40:42.849Z,2.30
2023-01-31T17:43:19.521Z,2.30
2023-01-31T17:45:46.768Z,2.30
2023-01-31T17:48:17.296Z,2.30
2023-01-31T17:50:48.131Z,2.20
2023-01-31T17:53:15.997Z,2.30
2023-01-31T17:55:43.584Z,2.30
2023-01-31T17:58:13.964Z,2.30
2023-01-31T18:00:41.186Z,2.30
2023-01-31T18:03:15.772Z,2.30
2023-01-31T18:05:43.288Z,2.30
2023-01-31T18:08:11.665Z,2.30
2023-01-31T18:10:39.784Z,2.30
2023-01-31T18:13:08.267Z,2.30
2023-01-31T18:15:40.215Z,2.30
2023-01-31T18:18:08.871Z,2.30
2023-01-31T18:20:38.076Z,2.30
2023-01-31T18:23:07.863Z,2.30
2023-01-31T18:25:35.046Z,2.30
2023-01-31T18:28:02.441Z,2.30
2023-01-31T18:30:29.644Z,2.30
2023-01-31T18:32:58.095Z,2.30
2023-01-31T18:35:25.341Z,2.30
2023-01-31T18:37:53.530Z,2.30
2023-01-31T18:40:20.745Z,2.30
2023-01-31T18:42:48.324Z,2.30
2023-01-31T18:45:15.756Z,2.30
2023-01-31T18:47:43.210Z,2.30
2023-01-31T18:50:11.187Z,2.20
2023-01-31T18:52:42.236Z,2.20
2023-01-31T18:55:10.049Z,2.40
2023-01-31T18:57:37.625Z,2.20
2023-01-31T19:00:05.375Z,2.20
2023-01-31T19:02:32.834Z,2.20
2023-01-31T19:05:00.463Z,2.20
2023-01-31T19:07:28.032Z,2.20
2023-01-31T19:09:55.249Z,2.20
2023-01-31T19:12:22.837Z,2.20
2023-01-31T19:14:50.942Z,2.20
2023-01-31T19:17:20.481Z,2.20
2023-01-31T19:19:47.696Z,2.20
2023-01-31T19:22:15.782Z,2.10
2023-01-31T19:24:43.040Z,2.20
2023-01-31T19:27:10.535Z,2.20
2023-01-31T19:29:39.788Z,2.20
2023-01-31T19:32:07.639Z,2.20
2023-01-31T19:34:36.468Z,2.20
2023-01-31T19:37:04.145Z,2.20
2023-01-31T19:39:31.409Z,2.30
2023-01-31T19:41:59.437Z,2.20
2023-01-31T19:44:26.591Z,2.10
2023-01-31T19:46:54.127Z,2.20
2023-01-31T19:49:24.431Z,2.20
2023-01-31T19:51:52.037Z,2.10
2023-01-31T19:54:19.827Z,2.20
2023-01-31T19:56:47.576Z,2.20
2023-01-31T19:59:14.842Z,2.20
2023-01-31T20:01:42.288Z,2.20
2023-01-31T20:04:09.533Z,2.20
2023-01-31T20:06:37.005Z,2.10
2023-01-31T20:09:08.236Z,2.20
2023-01-31T20:11:36.916Z,2.20
2023-01-31T20:14:04.698Z,2.20
2023-01-31T20:16:32.240Z,2.30
2023-01-31T20:19:01.852Z,2.20
2023-01-31T20:21:29.427Z,2.20
2023-01-31T20:23:56.862Z,2.20
2023-01-31T20:26:24.740Z,2.30
2023-01-31T20:28:52.307Z,2.30
2023-01-31T20:31:20.162Z,2.30
2023-01-31T20:33:47.403Z,2.30
2023-01-31T20:36:15.375Z,2.30
2023-01-31T20:38:42.663Z,2.30
2023-01-31T20:41:10.689Z,2.30
2023-01-31T20:43:38.137Z,2.30
2023-01-31T20:46:10.909Z,2.30
2023-01-31T20:48:39.802Z,2.30
2023-01-31T20:51:07.836Z,2.30
2023-01-31T20:53:35.865Z,2.30
2023-01-31T20:56:10.006Z,2.30
2023-01-31T20:58:39.451Z,2.40
2023-01-31T21:01:08.187Z,2.40
2023-01-31T21:03:35.849Z,2.50
2023-01-31T21:06:04.732Z,2.50
2023-01-31T21:08:32.324Z,2.50
2023-01-31T21:11:00.334Z,2.50
2023-01-31T21:13:29.080Z,2.40
2023-01-31T21:16:00.291Z,2.50
2023-01-31T21:18:29.782Z,2.50
2023-01-31T21:20:57.746Z,2.50
2023-01-31T21:23:25.521Z,2.50
2023-01-31T21:25:53.262Z,2.50
2023-01-31T21:28:20.478Z,2.50
2023-01-31T21:31:01.331Z,2.40
2023-01-31T21:33:29.341Z,2.40
2023-01-31T21:35:59.778Z,2.40
2023-01-31T21:38:27.600Z,2.30
2023-01-31T21:41:15.112Z,2.30
2023-01-31T21:43:42.333Z,2.30
2023-01-31T21:46:11.867Z,2.30
2023-01-31T21:48:39.942Z,2.30
2023-01-31T21:51:11.348Z,2.30
2023-01-31T21:53:39.116Z,2.30
2023-01-31T21:56:09.030Z,2.20
2023-01-31T21:58:37.619Z,2.20
2023-01-31T22:01:08.240Z,2.20
2023-01-31T22:03:36.610Z,2.20
2023-01-31T22:06:07.005Z,2.20
2023-01-31T22:08:35.064Z,2.10
2023-01-31T22:11:11.623Z,2.00
2023-01-31T22:13:39.739Z,2.00
2023-01-31T22:16:10.336Z,1.80
2023-01-31T22:18:39.025Z,1.80
2023-01-31T22:21:10.780Z,1.70
2023-01-31T22:23:40.558Z,1.60
2023-01-31T22:26:11.588Z,1.60
2023-01-31T22:28:39.798Z,1.60
2023-01-31T22:31:09.059Z,1.50
2023-01-31T22:33:38.744Z,1.60
2023-01-31T22:36:08.329Z,1.60
2023-01-31T22:38:36.202Z,1.60
2023-01-31T22:41:06.032Z,1.60
2023-01-31T22:43:39.573Z,1.60
2023-01-31T22:46:08.029Z,1.60
2023-01-31T22:48:36.317Z,1.70
2023-01-31T22:51:06.908Z,1.70
2023-01-31T22:53:37.304Z,1.80
2023-01-31T22:56:07.503Z,1.80
2023-01-31T22:58:34.720Z,1.80
2023-01-31T23:01:02.637Z,1.80
2023-01-31T23:03:29.871Z,1.90
2023-01-31T23:05:57.296Z,1.90
2023-01-31T23:08:24.425Z,1.90
2023-01-31T23:10:51.831Z,1.90
2023-01-31T23:13:18.860Z,1.90
2023-01-31T23:15:47.167Z,2.00
2023-01-31T23:18:17.288Z,2.00
2023-01-31T23:20:44.693Z,2.00
2023-01-31T23:23:11.801Z,2.00
2023-01-31T23:25:39.750Z,2.00
2023-01-31T23:28:06.969Z,2.00
2023-01-31T23:30:34.557Z,2.10
2023-01-31T23:33:01.678Z,2.10
2023-01-31T23:35:29.275Z,2.20
2023-01-31T23:37:57.083Z,2.10
2023-01-31T23:40:24.700Z,2.20
2023-01-31T23:42:51.747Z,2.20
2023-01-31T23:45:19.146Z,3.50
2023-01-31T23:47:46.208Z,2.30
2023-01-31T23:50:13.602Z,2.30
2023-01-31T23:52:40.786Z,2.30
2023-01-31T23:55:08.357Z,2.30
2023-01-31T23:57:35.488Z,2.40
